LOT010 EPKT-EPGD
Flight info
| Callsign | LOT010 |
|---|---|
| Flight time | 0h 50m |
| Altitude | 30000 |
| Route | NAVUR N744 OVBOR N133 GRUDA Z95 OSLOG |
| Aircraft | A320/M-KR/GDN |
Departure
| Time | 2026-05-07 18:47 |
|---|---|
| Airport | Katowice Wojciech Korfanty International Airport (EPKT) |
Arrival
| Time | 2026-05-07 19:37 |
|---|---|
| Airport | Gdańsk Lech Wałęsa Airport (EPGD) |
| Time | Latitude | Longitude | Altitude | Speed | Heading |
|---|---|---|---|---|---|
| 2026-05-07 18:29 | 50.47175 | 19.07280 | 998 ft | 0 kts | 180° |
| 2026-05-07 18:38 | 50.47199 | 19.07279 | 972 ft | 4 kts | 178° |
| 2026-05-07 18:38 | 50.47225 | 19.07269 | 974 ft | 4 kts | 129° |
| 2026-05-07 18:39 | 50.47234 | 19.07238 | 968 ft | 0 kts | 80° |
| 2026-05-07 18:40 | 50.47236 | 19.07256 | 970 ft | 3 kts | 80° |
| 2026-05-07 18:40 | 50.47241 | 19.07312 | 965 ft | 7 kts | 86° |
| 2026-05-07 18:40 | 50.47241 | 19.07404 | 966 ft | 10 kts | 95° |
| 2026-05-07 18:41 | 50.47234 | 19.07531 | 961 ft | 13 kts | 91° |
| 2026-05-07 18:41 | 50.47231 | 19.07690 | 969 ft | 16 kts | 92° |
| 2026-05-07 18:41 | 50.47233 | 19.07878 | 961 ft | 19 kts | 90° |
| 2026-05-07 18:41 | 50.47231 | 19.08093 | 969 ft | 21 kts | 90° |
| 2026-05-07 18:42 | 50.47231 | 19.08334 | 971 ft | 23 kts | 90° |
| 2026-05-07 18:42 | 50.47231 | 19.08598 | 971 ft | 25 kts | 90° |
| 2026-05-07 18:42 | 50.47231 | 19.08884 | 971 ft | 27 kts | 90° |
| 2026-05-07 18:42 | 50.47230 | 19.09187 | 966 ft | 29 kts | 90° |
| 2026-05-07 18:43 | 50.47229 | 19.09497 | 968 ft | 23 kts | 90° |
| 2026-05-07 18:43 | 50.47229 | 19.09673 | 965 ft | 16 kts | 90° |
| 2026-05-07 18:43 | 50.47229 | 19.09865 | 963 ft | 19 kts | 90° |
| 2026-05-07 18:43 | 50.47258 | 19.10069 | 966 ft | 21 kts | 54° |
| 2026-05-07 18:44 | 50.47352 | 19.10250 | 965 ft | 22 kts | 52° |
| 2026-05-07 18:44 | 50.47408 | 19.10364 | 966 ft | 0 kts | 52° |
| 2026-05-07 18:44 | 50.47410 | 19.10369 | 965 ft | 0 kts | 52° |
| 2026-05-07 18:46 | 50.47418 | 19.10385 | 965 ft | 4 kts | 52° |
| 2026-05-07 18:46 | 50.47445 | 19.10424 | 970 ft | 8 kts | 28° |
| 2026-05-07 18:46 | 50.47543 | 19.10446 | 963 ft | 17 kts | 353° |
| 2026-05-07 18:46 | 50.47594 | 19.10307 | 968 ft | 16 kts | 271° |
| 2026-05-07 18:47 | 50.47592 | 19.09820 | 969 ft | 87 kts | 269° |
| 2026-05-07 18:47 | 50.47593 | 19.08472 | 969 ft | 157 kts | 270° |
| 2026-05-07 18:47 | 50.47607 | 19.06507 | 1197 ft | 196 kts | 271° |
| 2026-05-07 18:47 | 50.47640 | 19.04292 | 1926 ft | 208 kts | 272° |
| 2026-05-07 18:48 | 50.47648 | 19.02056 | 3175 ft | 205 kts | 269° |
| 2026-05-07 18:48 | 50.47643 | 18.99725 | 4049 ft | 222 kts | 268° |
| 2026-05-07 18:48 | 50.47804 | 18.97230 | 4947 ft | 237 kts | 287° |
| 2026-05-07 18:48 | 50.48675 | 18.94985 | 5898 ft | 251 kts | 312° |
| 2026-05-07 18:49 | 50.50212 | 18.93462 | 6462 ft | 276 kts | 341° |
| 2026-05-07 18:49 | 50.52150 | 18.93249 | 7323 ft | 287 kts | 8° |
| 2026-05-07 18:49 | 50.54016 | 18.94446 | 8209 ft | 296 kts | 35° |
| 2026-05-07 18:49 | 50.55417 | 18.96841 | 9089 ft | 303 kts | 60° |
| 2026-05-07 18:50 | 50.56570 | 18.99650 | 9970 ft | 309 kts | 54° |
| 2026-05-07 18:50 | 50.57935 | 19.02358 | 10504 ft | 328 kts | 51° |
| 2026-05-07 18:50 | 50.59450 | 19.05221 | 10837 ft | 352 kts | 51° |
| 2026-05-07 18:50 | 50.61021 | 19.08236 | 11418 ft | 363 kts | 52° |
| 2026-05-07 18:51 | 50.62610 | 19.11362 | 12286 ft | 367 kts | 52° |
| 2026-05-07 18:51 | 50.64173 | 19.14491 | 13083 ft | 372 kts | 53° |
| 2026-05-07 18:51 | 50.65771 | 19.17724 | 13878 ft | 376 kts | 53° |
| 2026-05-07 18:51 | 50.67391 | 19.21018 | 14581 ft | 381 kts | 54° |
| 2026-05-07 18:52 | 50.69019 | 19.24340 | 15284 ft | 386 kts | 54° |
| 2026-05-07 18:52 | 50.70670 | 19.27712 | 15985 ft | 391 kts | 54° |
| 2026-05-07 18:52 | 50.72344 | 19.31135 | 16619 ft | 397 kts | 54° |
| 2026-05-07 18:52 | 50.74038 | 19.34603 | 16877 ft | 400 kts | 54° |
| 2026-05-07 18:53 | 50.75737 | 19.38086 | 16942 ft | 401 kts | 54° |
| 2026-05-07 18:53 | 50.77432 | 19.41565 | 16943 ft | 400 kts | 54° |
| 2026-05-07 18:53 | 50.79129 | 19.45052 | 16944 ft | 400 kts | 54° |
| 2026-05-07 18:53 | 50.80823 | 19.48541 | 16944 ft | 400 kts | 54° |
| 2026-05-07 18:54 | 50.82514 | 19.52028 | 16947 ft | 400 kts | 54° |
| 2026-05-07 18:54 | 50.84209 | 19.55528 | 16947 ft | 400 kts | 54° |
| 2026-05-07 18:54 | 50.85897 | 19.59018 | 16946 ft | 400 kts | 54° |
| 2026-05-07 18:54 | 50.87584 | 19.62511 | 16947 ft | 398 kts | 54° |
| 2026-05-07 18:55 | 50.89262 | 19.65990 | 16940 ft | 398 kts | 54° |
| 2026-05-07 18:55 | 50.90947 | 19.69489 | 16946 ft | 400 kts | 54° |
| 2026-05-07 18:55 | 50.92630 | 19.72988 | 16947 ft | 399 kts | 54° |
| 2026-05-07 18:55 | 50.94314 | 19.76492 | 16947 ft | 399 kts | 54° |
| 2026-05-07 18:56 | 50.95999 | 19.80003 | 16948 ft | 399 kts | 54° |
| 2026-05-07 18:56 | 50.97679 | 19.83508 | 16949 ft | 400 kts | 54° |
| 2026-05-07 18:56 | 50.99357 | 19.87015 | 16950 ft | 399 kts | 54° |
| 2026-05-07 18:56 | 51.01040 | 19.90537 | 16950 ft | 399 kts | 54° |
| 2026-05-07 18:57 | 51.02718 | 19.94050 | 16950 ft | 399 kts | 54° |
| 2026-05-07 18:57 | 51.04397 | 19.97569 | 16950 ft | 399 kts | 54° |
| 2026-05-07 18:57 | 51.06069 | 20.01075 | 16949 ft | 398 kts | 54° |
| 2026-05-07 18:57 | 51.07748 | 20.04597 | 17037 ft | 401 kts | 54° |
| 2026-05-07 18:58 | 51.09437 | 20.08145 | 17703 ft | 403 kts | 54° |
| 2026-05-07 18:58 | 51.11133 | 20.11709 | 18419 ft | 406 kts | 54° |
| 2026-05-07 18:58 | 51.12853 | 20.15324 | 18988 ft | 412 kts | 53° |
| 2026-05-07 18:58 | 51.14875 | 20.18570 | 19540 ft | 417 kts | 37° |
| 2026-05-07 18:59 | 51.17408 | 20.20835 | 20017 ft | 422 kts | 20° |
| 2026-05-07 18:59 | 51.20250 | 20.22006 | 19963 ft | 419 kts | 3° |
| 2026-05-07 18:59 | 51.23130 | 20.21863 | 19955 ft | 412 kts | 345° |
| 2026-05-07 18:59 | 51.25860 | 20.20622 | 19955 ft | 407 kts | 337° |
| 2026-05-07 19:00 | 51.28540 | 20.19193 | 19958 ft | 405 kts | 338° |
| 2026-05-07 19:00 | 51.31229 | 20.17823 | 19960 ft | 406 kts | 338° |
| 2026-05-07 19:00 | 51.33924 | 20.16464 | 19961 ft | 406 kts | 338° |
| 2026-05-07 19:00 | 51.36620 | 20.15100 | 19961 ft | 406 kts | 338° |
| 2026-05-07 19:01 | 51.39316 | 20.13729 | 19962 ft | 406 kts | 338° |
| 2026-05-07 19:01 | 51.42007 | 20.12353 | 19966 ft | 406 kts | 338° |
| 2026-05-07 19:01 | 51.44701 | 20.10968 | 19966 ft | 406 kts | 338° |
| 2026-05-07 19:01 | 51.47360 | 20.09481 | 19992 ft | 405 kts | 336° |
| 2026-05-07 19:02 | 51.50020 | 20.07938 | 20300 ft | 408 kts | 336° |
| 2026-05-07 19:02 | 51.52703 | 20.06393 | 20907 ft | 411 kts | 336° |
| 2026-05-07 19:02 | 51.55392 | 20.04863 | 21756 ft | 408 kts | 336° |
| 2026-05-07 19:02 | 51.58049 | 20.03376 | 22658 ft | 403 kts | 336° |
| 2026-05-07 19:03 | 51.60686 | 20.01928 | 23565 ft | 398 kts | 336° |
| 2026-05-07 19:03 | 51.63293 | 20.00523 | 24360 ft | 392 kts | 336° |
| 2026-05-07 19:03 | 51.65852 | 19.99153 | 25157 ft | 384 kts | 336° |
| 2026-05-07 19:03 | 51.68359 | 19.97816 | 25979 ft | 375 kts | 336° |
| 2026-05-07 19:04 | 51.70790 | 19.96529 | 26823 ft | 364 kts | 336° |
| 2026-05-07 19:04 | 51.73165 | 19.95281 | 27687 ft | 351 kts | 336° |
| 2026-05-07 19:04 | 51.75474 | 19.94076 | 28219 ft | 350 kts | 336° |
| 2026-05-07 19:04 | 51.77807 | 19.92852 | 28515 ft | 354 kts | 336° |
| 2026-05-07 19:05 | 51.80131 | 19.91627 | 28797 ft | 359 kts | 336° |
| 2026-05-07 19:05 | 51.82563 | 19.90332 | 28898 ft | 369 kts | 336° |
| 2026-05-07 19:05 | 51.85033 | 19.89004 | 29006 ft | 379 kts | 336° |
| 2026-05-07 19:05 | 51.87564 | 19.87630 | 29110 ft | 389 kts | 336° |
| 2026-05-07 19:06 | 51.90128 | 19.86225 | 29249 ft | 399 kts | 336° |
| 2026-05-07 19:06 | 51.95518 | 19.83235 | 29455 ft | 419 kts | 336° |
| 2026-05-07 19:06 | 51.98308 | 19.81671 | 29561 ft | 429 kts | 336° |
| 2026-05-07 19:07 | 52.01160 | 19.80061 | 29662 ft | 439 kts | 336° |
| 2026-05-07 19:07 | 52.04067 | 19.78411 | 29781 ft | 448 kts | 336° |
| 2026-05-07 19:07 | 52.07039 | 19.76714 | 29894 ft | 458 kts | 336° |
| 2026-05-07 19:07 | 52.10080 | 19.74974 | 29991 ft | 467 kts | 336° |
| 2026-05-07 19:08 | 52.13178 | 19.73197 | 29994 ft | 478 kts | 336° |
| 2026-05-07 19:08 | 52.16340 | 19.71371 | 29974 ft | 487 kts | 336° |
| 2026-05-07 19:08 | 52.22727 | 19.67673 | 29995 ft | 486 kts | 336° |
| 2026-05-07 19:09 | 52.29099 | 19.63977 | 29994 ft | 486 kts | 336° |
| 2026-05-07 19:09 | 52.35474 | 19.60273 | 29983 ft | 486 kts | 336° |
| 2026-05-07 19:10 | 52.41832 | 19.56597 | 29995 ft | 484 kts | 336° |
| 2026-05-07 19:10 | 52.48190 | 19.52925 | 29997 ft | 484 kts | 336° |
| 2026-05-07 19:11 | 52.54543 | 19.49250 | 29986 ft | 484 kts | 336° |
| 2026-05-07 19:11 | 52.60898 | 19.45568 | 30005 ft | 484 kts | 336° |
| 2026-05-07 19:12 | 52.67257 | 19.41892 | 30000 ft | 483 kts | 336° |
| 2026-05-07 19:12 | 52.73636 | 19.38247 | 29997 ft | 487 kts | 336° |
| 2026-05-07 19:13 | 52.80023 | 19.34600 | 29997 ft | 486 kts | 336° |
| 2026-05-07 19:13 | 52.86415 | 19.30942 | 29999 ft | 486 kts | 336° |
| 2026-05-07 19:14 | 52.92796 | 19.27286 | 30002 ft | 486 kts | 336° |
| 2026-05-07 19:14 | 52.99194 | 19.23685 | 30000 ft | 485 kts | 336° |
| 2026-05-07 19:15 | 53.05588 | 19.20099 | 30002 ft | 485 kts | 336° |
| 2026-05-07 19:15 | 53.11984 | 19.16512 | 30006 ft | 488 kts | 336° |
| 2026-05-07 19:16 | 53.15219 | 19.14715 | 29855 ft | 490 kts | 336° |
| 2026-05-07 19:16 | 53.18406 | 19.12945 | 29413 ft | 487 kts | 336° |
| 2026-05-07 19:16 | 53.21606 | 19.11169 | 28885 ft | 481 kts | 336° |
| 2026-05-07 19:16 | 53.24764 | 19.09443 | 28371 ft | 474 kts | 336° |
| 2026-05-07 19:17 | 53.27872 | 19.07757 | 27850 ft | 467 kts | 336° |
| 2026-05-07 19:17 | 53.30942 | 19.06086 | 27356 ft | 460 kts | 336° |
| 2026-05-07 19:17 | 53.33974 | 19.04430 | 26861 ft | 457 kts | 336° |
| 2026-05-07 19:17 | 53.36984 | 19.02777 | 26375 ft | 454 kts | 336° |
| 2026-05-07 19:18 | 53.39962 | 19.01134 | 25911 ft | 449 kts | 336° |
| 2026-05-07 19:18 | 53.42914 | 18.99496 | 25436 ft | 444 kts | 336° |
| 2026-05-07 19:18 | 53.45827 | 18.97872 | 24974 ft | 439 kts | 336° |
| 2026-05-07 19:18 | 53.48709 | 18.96256 | 24523 ft | 435 kts | 336° |
| 2026-05-07 19:19 | 53.51564 | 18.94643 | 24077 ft | 430 kts | 336° |
| 2026-05-07 19:19 | 53.54373 | 18.93019 | 23660 ft | 423 kts | 336° |
| 2026-05-07 19:19 | 53.57126 | 18.91366 | 23144 ft | 419 kts | 336° |
| 2026-05-07 19:19 | 53.59869 | 18.89699 | 22623 ft | 418 kts | 336° |
| 2026-05-07 19:20 | 53.62590 | 18.88036 | 22116 ft | 414 kts | 336° |
| 2026-05-07 19:20 | 53.65274 | 18.86387 | 21621 ft | 408 kts | 336° |
| 2026-05-07 19:20 | 53.67907 | 18.84762 | 21132 ft | 403 kts | 336° |
| 2026-05-07 19:20 | 53.70524 | 18.83141 | 20652 ft | 397 kts | 336° |
| 2026-05-07 19:21 | 53.73102 | 18.81536 | 20172 ft | 392 kts | 336° |
| 2026-05-07 19:21 | 53.75641 | 18.79947 | 19706 ft | 387 kts | 336° |
| 2026-05-07 19:21 | 53.78155 | 18.78365 | 19246 ft | 383 kts | 336° |
| 2026-05-07 19:21 | 53.80647 | 18.76792 | 18796 ft | 381 kts | 336° |
| 2026-05-07 19:22 | 53.83120 | 18.75231 | 18344 ft | 377 kts | 336° |
| 2026-05-07 19:22 | 53.85558 | 18.73684 | 17838 ft | 373 kts | 336° |
| 2026-05-07 19:22 | 53.87978 | 18.72148 | 17322 ft | 365 kts | 336° |
| 2026-05-07 19:22 | 53.90316 | 18.70669 | 16826 ft | 354 kts | 336° |
| 2026-05-07 19:23 | 53.92597 | 18.69228 | 16335 ft | 345 kts | 336° |
| 2026-05-07 19:23 | 53.94811 | 18.67823 | 15865 ft | 335 kts | 336° |
| 2026-05-07 19:23 | 53.96242 | 18.66900 | 15549 ft | 330 kts | 336° |
| 2026-05-07 19:23 | 53.98290 | 18.65574 | 15092 ft | 322 kts | 336° |
| 2026-05-07 19:24 | 54.01026 | 18.63812 | 14477 ft | 313 kts | 336° |
| 2026-05-07 19:24 | 54.02399 | 18.62931 | 14182 ft | 313 kts | 336° |
| 2026-05-07 19:24 | 54.04441 | 18.61620 | 13714 ft | 312 kts | 336° |
| 2026-05-07 19:24 | 54.06458 | 18.60329 | 13208 ft | 308 kts | 336° |
| 2026-05-07 19:25 | 54.09094 | 18.58623 | 12548 ft | 304 kts | 336° |
| 2026-05-07 19:25 | 54.10423 | 18.57761 | 12214 ft | 302 kts | 336° |
| 2026-05-07 19:25 | 54.12364 | 18.56465 | 11740 ft | 298 kts | 336° |
| 2026-05-07 19:25 | 54.14298 | 18.55188 | 11264 ft | 296 kts | 336° |
| 2026-05-07 19:26 | 54.16199 | 18.53909 | 10806 ft | 292 kts | 336° |
| 2026-05-07 19:26 | 54.18080 | 18.52640 | 10343 ft | 289 kts | 338° |
| 2026-05-07 19:26 | 54.20043 | 18.52079 | 9879 ft | 288 kts | 4° |
| 2026-05-07 19:26 | 54.21948 | 18.53020 | 9375 ft | 287 kts | 30° |
| 2026-05-07 19:27 | 54.23415 | 18.55287 | 8886 ft | 286 kts | 54° |
| 2026-05-07 19:27 | 54.24679 | 18.57866 | 8400 ft | 281 kts | 38° |
| 2026-05-07 19:27 | 54.26043 | 18.60216 | 8152 ft | 279 kts | 58° |
| 2026-05-07 19:27 | 54.26693 | 18.63348 | 7979 ft | 285 kts | 84° |
| 2026-05-07 19:28 | 54.26484 | 18.66688 | 7576 ft | 284 kts | 110° |
| 2026-05-07 19:28 | 54.25654 | 18.69723 | 7156 ft | 280 kts | 116° |
| 2026-05-07 19:28 | 54.24774 | 18.72690 | 6735 ft | 278 kts | 116° |
| 2026-05-07 19:28 | 54.23913 | 18.75575 | 6300 ft | 276 kts | 116° |
| 2026-05-07 19:29 | 54.23022 | 18.78483 | 5938 ft | 276 kts | 116° |
| 2026-05-07 19:29 | 54.22105 | 18.81346 | 5514 ft | 273 kts | 116° |
| 2026-05-07 19:29 | 54.21179 | 18.84158 | 5117 ft | 269 kts | 116° |
| 2026-05-07 19:29 | 54.20262 | 18.86928 | 4705 ft | 267 kts | 114° |
| 2026-05-07 19:30 | 54.19761 | 18.89895 | 4299 ft | 259 kts | 87° |
| 2026-05-07 19:30 | 54.20153 | 18.92811 | 4034 ft | 250 kts | 57° |
| 2026-05-07 19:30 | 54.21285 | 18.94872 | 3973 ft | 244 kts | 29° |
| 2026-05-07 19:30 | 54.22906 | 18.95679 | 3975 ft | 248 kts | 0° |
| 2026-05-07 19:31 | 54.24565 | 18.94970 | 3968 ft | 245 kts | 332° |
| 2026-05-07 19:31 | 54.25915 | 18.93339 | 3970 ft | 240 kts | 326° |
| 2026-05-07 19:31 | 54.27267 | 18.91620 | 3963 ft | 243 kts | 326° |
| 2026-05-07 19:31 | 54.28616 | 18.89883 | 3969 ft | 242 kts | 326° |
| 2026-05-07 19:32 | 54.29954 | 18.88147 | 3971 ft | 242 kts | 326° |
| 2026-05-07 19:32 | 54.31302 | 18.86417 | 3972 ft | 242 kts | 326° |
| 2026-05-07 19:32 | 54.32444 | 18.84284 | 3937 ft | 249 kts | 301° |
| 2026-05-07 19:32 | 54.32871 | 18.81390 | 3647 ft | 256 kts | 272° |
| 2026-05-07 19:33 | 54.32427 | 18.78453 | 3241 ft | 260 kts | 245° |
| 2026-05-07 19:33 | 54.31808 | 18.75584 | 3013 ft | 251 kts | 264° |
| 2026-05-07 19:33 | 54.31579 | 18.72736 | 2988 ft | 231 kts | 266° |
| 2026-05-07 19:33 | 54.31383 | 18.70148 | 2981 ft | 207 kts | 272° |
| 2026-05-07 19:34 | 54.31605 | 18.67931 | 2984 ft | 178 kts | 290° |
| 2026-05-07 19:34 | 54.31891 | 18.65922 | 2969 ft | 174 kts | 289° |
| 2026-05-07 19:34 | 54.32154 | 18.63968 | 2927 ft | 167 kts | 289° |
| 2026-05-07 19:34 | 54.32478 | 18.62097 | 2621 ft | 163 kts | 299° |
| 2026-05-07 19:35 | 54.32939 | 18.60321 | 2107 ft | 161 kts | 311° |
| 2026-05-07 19:35 | 54.33654 | 18.59101 | 2004 ft | 132 kts | 326° |
| 2026-05-07 19:35 | 54.34275 | 18.58007 | 1786 ft | 124 kts | 316° |
| 2026-05-07 19:35 | 54.34793 | 18.56794 | 1552 ft | 134 kts | 313° |
| 2026-05-07 19:36 | 54.35308 | 18.55559 | 1365 ft | 126 kts | 311° |
| 2026-05-07 19:36 | 54.35786 | 18.54219 | 1258 ft | 136 kts | 306° |
| 2026-05-07 19:36 | 54.36230 | 18.52711 | 1091 ft | 145 kts | 301° |
| 2026-05-07 19:36 | 54.36617 | 18.51173 | 806 ft | 135 kts | 298° |
| 2026-05-07 19:37 | 54.36972 | 18.49762 | 599 ft | 125 kts | 297° |
| 2026-05-07 19:37 | 54.37313 | 18.48434 | 477 ft | 119 kts | 294° |
| 2026-05-07 19:37 | 54.37590 | 18.47298 | 459 ft | 59 kts | 292° |
| 2026-05-07 19:37 | 54.37744 | 18.46852 | 450 ft | 17 kts | 313° |
| 2026-05-07 19:38 | 54.37820 | 18.46743 | 451 ft | 0 kts | 323° |
| 2026-05-07 19:38 | 54.37828 | 18.46734 | 451 ft | 3 kts | 323° |
| 2026-05-07 19:38 | 54.37853 | 18.46700 | 451 ft | 6 kts | 322° |
| 2026-05-07 19:38 | 54.37889 | 18.46652 | 452 ft | 7 kts | 322° |
| 2026-05-07 19:39 | 54.37931 | 18.46599 | 453 ft | 8 kts | 324° |
| 2026-05-07 19:39 | 54.37987 | 18.46579 | 453 ft | 10 kts | 2° |
| 2026-05-07 19:39 | 54.38046 | 18.46610 | 453 ft | 8 kts | 339° |
| 2026-05-07 19:39 | 54.38099 | 18.46605 | 453 ft | 8 kts | 20° |
| 2026-05-07 19:40 | 54.38117 | 18.46616 | 452 ft | 0 kts | 21° |